Mariq — SVA2152 — position and weather

sailwx.info

Track history (hours):
 
Tides and Currents Weather Stations Pressure Air Temp Water Temp Dewpoint Dewpoint Depression Visibility Wind Speed Wind Dir Waves Ship Positions

Mariq

Last reported at 2017-Jun-12 15:24 UTC. Time now 2017-Jun-26 18:59 UTC.
Position N 37°23' E 025°55'.
Warning: this ship's position is 14 days out of date.

Length 57 m.

Type: Tanker. MMSI: 239758424.

Date/timePositionNaut miles runAvg speedWind from/ knotsBaromVisibWave heightAir tempDewpointWater temp
2017-Jun-12 15:24N 37°23' E 025°55'4 9.0
2017-Jun-12 15:01N 37°23' E 025°51'7 9.0
2017-Jun-12 14:16N 37°25' E 025°42'6 8.3
2017-Jun-12 13:30N 37°24' E 025°34'4 8.1
2017-Jun-12 13:01N 37°23' E 025°30'4 8.3
2017-Jun-12 12:30N 37°22' E 025°24'4 8.5
2017-Jun-12 12:01N 37°21' E 025°19'4 8.2
2017-Jun-12 11:30N 37°20' E 025°14'4 8.7
2017-Jun-12 11:00N 37°21' E 025°09'4 8.6
2017-Jun-12 10:30N 37°21' E 025°03'4 8.5
2017-Jun-12 10:01N 37°21' E 024°58'4 8.5
2017-Jun-12 09:30N 37°21' E 024°53'4 8.5
2017-Jun-12 09:01N 37°23' E 024°48'36 2.3
2017-Jun-11 17:01N 37°37' E 024°06'  
Track history (hours):
 
Tides and Currents Weather Stations Pressure Air Temp Water Temp Dewpoint Dewpoint Depression Visibility Wind Speed Wind Dir Waves Ship Positions

Mariq

Last reported at 2017-Jun-12 15:24 UTC. Time now 2017-Jun-26 18:59 UTC.
Position N 37°23' E 025°55'.
Warning: this ship's position is 14 days out of date.

Length 57 m.

Type: Tanker. MMSI: 239758424.

Date/timePositionNaut miles runAvg speedWind from/ knotsBaromVisibWave heightAir tempDewpointWater temp
2017-Jun-12 15:24N 37°23' E 025°55'4 9.0
2017-Jun-12 15:01N 37°23' E 025°51'7 9.0
2017-Jun-12 14:16N 37°25' E 025°42'6 8.3
2017-Jun-12 13:30N 37°24' E 025°34'4 8.1
2017-Jun-12 13:01N 37°23' E 025°30'4 8.3
2017-Jun-12 12:30N 37°22' E 025°24'4 8.5
2017-Jun-12 12:01N 37°21' E 025°19'4 8.2
2017-Jun-12 11:30N 37°20' E 025°14'4 8.7
2017-Jun-12 11:00N 37°21' E 025°09'4 8.6
2017-Jun-12 10:30N 37°21' E 025°03'4 8.5
2017-Jun-12 10:01N 37°21' E 024°58'4 8.5
2017-Jun-12 09:30N 37°21' E 024°53'4 8.5
2017-Jun-12 09:01N 37°23' E 024°48'36 2.3
2017-Jun-11 17:01N 37°37' E 024°06'  

Dump ship's entire track history